createdAt,value
2018-03-04T12:26:28.655Z,16.31
2018-03-04T12:28:56.038Z,16.73
2018-03-04T12:31:23.443Z,16.65
2018-03-04T12:33:50.873Z,16.79
2018-03-04T12:36:18.257Z,16.67
2018-03-04T12:38:45.638Z,16.66
2018-03-04T12:41:13.021Z,16.30
2018-03-04T12:43:40.490Z,15.61
2018-03-04T12:46:07.910Z,14.21
2018-03-04T12:48:37.062Z,13.83
2018-03-04T12:51:04.457Z,13.19
2018-03-04T12:53:31.991Z,12.72
2018-03-04T12:55:59.411Z,12.36
2018-03-04T12:58:26.847Z,12.89
2018-03-04T13:00:54.257Z,12.17
2018-03-04T13:03:21.651Z,12.40
2018-03-04T13:05:49.070Z,12.54
2018-03-04T13:08:16.459Z,12.22
2018-03-04T13:10:43.903Z,12.30
2018-03-04T13:13:11.341Z,12.12
2018-03-04T13:15:38.797Z,12.30
2018-03-04T13:18:06.166Z,12.76
2018-03-04T13:20:33.557Z,12.86
2018-03-04T13:23:00.949Z,13.07
2018-03-04T13:25:28.370Z,12.86
2018-03-04T13:27:55.762Z,12.84
2018-03-04T13:30:23.187Z,12.69
2018-03-04T13:32:50.585Z,12.56
2018-03-04T13:35:17.978Z,12.73
2018-03-04T13:37:45.406Z,12.53
2018-03-04T13:40:12.901Z,12.79
2018-03-04T13:42:40.384Z,12.75
2018-03-04T13:45:07.783Z,11.99
2018-03-04T13:47:35.186Z,12.37
2018-03-04T13:50:02.618Z,12.01
2018-03-04T13:52:30.010Z,12.03
2018-03-04T13:54:57.399Z,11.54
2018-03-04T13:57:24.791Z,11.47
2018-03-04T13:59:52.208Z,11.37
2018-03-04T14:02:19.626Z,11.45
2018-03-04T14:04:47.038Z,11.17
2018-03-04T14:07:14.434Z,10.83
2018-03-04T14:09:41.822Z,10.72
2018-03-04T14:12:09.245Z,10.99
2018-03-04T14:14:36.872Z,11.19
2018-03-04T14:17:04.257Z,10.76
2018-03-04T14:19:32.422Z,10.32
2018-03-04T14:21:59.840Z,10.22
2018-03-04T14:24:27.314Z,10.52
2018-03-04T14:26:54.710Z,10.70
2018-03-04T14:29:22.183Z,10.78
2018-03-04T14:31:49.592Z,10.76
2018-03-04T14:34:17.099Z,10.51
2018-03-04T14:36:44.523Z,10.34
2018-03-04T14:39:11.926Z,10.49
2018-03-04T14:41:39.338Z,10.40
2018-03-04T14:44:06.751Z,10.26
2018-03-04T14:46:34.173Z,10.56
2018-03-04T14:49:01.565Z,10.05
2018-03-04T14:51:28.954Z,9.92
2018-03-04T14:53:56.340Z,9.82
2018-03-04T14:56:23.730Z,9.79
2018-03-04T14:58:51.114Z,9.40
2018-03-04T15:01:18.511Z,9.23
2018-03-04T15:03:45.974Z,9.07
2018-03-04T15:06:13.358Z,9.19
2018-03-04T15:08:40.769Z,9.49
2018-03-04T15:11:08.172Z,9.47
2018-03-04T15:13:35.574Z,9.50
2018-03-04T15:16:03.004Z,9.43
2018-03-04T15:18:30.393Z,9.67
2018-03-04T15:20:57.810Z,9.53
2018-03-04T15:23:25.214Z,9.52
2018-03-04T15:25:52.820Z,8.99
2018-03-04T15:28:21.006Z,9.10
2018-03-04T15:30:48.390Z,8.95
2018-03-04T15:33:15.826Z,9.18
2018-03-04T15:35:43.227Z,9.14
2018-03-04T15:38:10.665Z,9.16
2018-03-04T15:40:38.067Z,9.19
2018-03-04T15:43:05.499Z,9.21
2018-03-04T15:45:32.913Z,8.94
2018-03-04T15:48:00.303Z,8.75
2018-03-04T15:50:27.689Z,8.96
2018-03-04T15:52:55.106Z,9.14
2018-03-04T15:55:22.500Z,9.04
2018-03-04T15:57:49.897Z,8.81
2018-03-04T16:00:17.326Z,8.49
2018-03-04T16:02:44.715Z,8.65
2018-03-04T16:05:12.109Z,8.74
2018-03-04T16:07:39.542Z,8.77
2018-03-04T16:10:06.923Z,8.40
2018-03-04T16:12:34.508Z,8.46
2018-03-04T16:15:01.905Z,8.17
2018-03-04T16:17:29.330Z,8.16
2018-03-04T16:19:56.711Z,8.39
2018-03-04T16:22:24.176Z,8.42
2018-03-04T16:24:51.566Z,8.54
2018-03-04T16:27:18.952Z,8.50
2018-03-04T16:29:46.346Z,8.39
2018-03-04T16:32:13.730Z,8.63
2018-03-04T16:34:41.127Z,8.67
2018-03-04T16:37:08.533Z,8.65
2018-03-04T16:39:35.986Z,8.75
2018-03-04T16:42:03.370Z,8.66
2018-03-04T16:44:30.760Z,8.49
2018-03-04T16:46:58.154Z,8.40
2018-03-04T16:49:25.604Z,8.32
2018-03-04T16:51:53.003Z,8.19
2018-03-04T16:54:20.398Z,8.20
2018-03-04T16:56:47.781Z,8.29
2018-03-04T16:59:15.222Z,8.38
2018-03-04T17:01:42.647Z,8.40
2018-03-04T17:04:10.035Z,8.34
2018-03-04T17:06:37.475Z,8.37
2018-03-04T17:09:04.904Z,8.30
2018-03-04T17:11:32.302Z,8.34
2018-03-04T17:13:59.717Z,8.41
2018-03-04T17:16:27.119Z,8.50
2018-03-04T17:18:54.502Z,8.49
2018-03-04T17:21:22.001Z,8.53
2018-03-04T17:23:49.402Z,8.10
2018-03-04T17:26:16.814Z,8.12
2018-03-04T17:28:44.198Z,8.36
2018-03-04T17:31:11.590Z,8.34
2018-03-04T17:33:38.970Z,7.97
2018-03-04T17:36:06.415Z,8.30
2018-03-04T17:38:33.814Z,8.13
2018-03-04T17:41:01.199Z,7.93
2018-03-04T17:43:28.665Z,7.92
2018-03-04T17:45:56.102Z,8.19
2018-03-04T17:48:23.493Z,8.18
2018-03-04T17:50:50.969Z,8.09
2018-03-04T17:53:18.369Z,8.30
2018-03-04T17:55:45.798Z,8.26
2018-03-04T17:58:13.188Z,7.98
2018-03-04T18:00:40.575Z,7.73
2018-03-04T18:03:07.968Z,7.92
2018-03-04T18:05:35.398Z,8.08
2018-03-04T18:08:02.786Z,8.05
2018-03-04T18:10:30.226Z,7.71
2018-03-04T18:12:57.645Z,7.94
2018-03-04T18:15:25.033Z,7.79
2018-03-04T18:17:52.434Z,7.90
2018-03-04T18:20:19.876Z,7.92
2018-03-04T18:22:47.303Z,7.87
2018-03-04T18:25:14.746Z,7.64
2018-03-04T18:27:42.207Z,7.67
2018-03-04T18:30:09.599Z,7.73
2018-03-04T18:32:36.995Z,7.68
2018-03-04T18:35:04.389Z,7.49
2018-03-04T18:37:31.798Z,7.40
2018-03-04T18:39:59.191Z,7.30
2018-03-04T18:42:26.584Z,7.31
2018-03-04T18:44:54.416Z,7.12
2018-03-04T18:47:21.813Z,7.41
2018-03-04T18:49:49.244Z,7.06
2018-03-04T18:52:16.708Z,6.85
2018-03-04T18:54:44.113Z,6.94
2018-03-04T18:57:11.521Z,6.99
2018-03-04T18:59:38.959Z,7.13
2018-03-04T19:02:06.417Z,7.28
2018-03-04T19:04:33.851Z,7.14
2018-03-04T19:07:01.314Z,7.14
2018-03-04T19:09:28.758Z,6.96
2018-03-04T19:11:56.193Z,6.74
2018-03-04T19:14:23.608Z,6.89
2018-03-04T19:16:51.002Z,6.89
2018-03-04T19:19:18.422Z,6.91
2018-03-04T19:21:46.562Z,7.08
2018-03-04T19:24:13.955Z,7.07
2018-03-04T19:26:41.382Z,6.77
2018-03-04T19:29:08.794Z,6.90
2018-03-04T19:31:36.178Z,6.82
2018-03-04T19:34:04.194Z,6.82
2018-03-04T19:36:31.584Z,7.03
2018-03-04T19:38:58.974Z,7.18
2018-03-04T19:41:26.394Z,7.16
2018-03-04T19:43:53.778Z,7.02
2018-03-04T19:46:21.169Z,6.97
2018-03-04T19:48:48.679Z,7.06
2018-03-04T19:51:16.066Z,7.10
2018-03-04T19:53:43.477Z,7.17
2018-03-04T19:56:11.016Z,6.96
2018-03-04T19:58:38.401Z,6.97
2018-03-04T20:01:05.778Z,6.72
2018-03-04T20:03:33.206Z,6.77
2018-03-04T20:06:00.607Z,6.92
2018-03-04T20:08:27.989Z,6.88
2018-03-04T20:10:55.383Z,6.66
2018-03-04T20:13:22.770Z,6.50
2018-03-04T20:15:50.213Z,6.63
2018-03-04T20:18:17.621Z,6.81
2018-03-04T20:20:45.065Z,6.82
2018-03-04T20:23:12.446Z,6.99
2018-03-04T20:25:39.869Z,6.90
2018-03-04T20:28:07.259Z,6.54
2018-03-04T20:30:34.647Z,6.55
2018-03-04T20:33:02.058Z,6.53
2018-03-04T20:35:29.446Z,6.34
2018-03-04T20:37:56.890Z,6.40
2018-03-04T20:40:24.274Z,6.61
2018-03-04T20:42:51.688Z,6.92
2018-03-04T20:45:19.188Z,6.87
2018-03-04T20:47:46.712Z,6.66
2018-03-04T20:50:14.099Z,6.34
2018-03-04T20:52:41.485Z,6.59
2018-03-04T20:55:08.867Z,6.28
2018-03-04T20:57:36.270Z,6.32
2018-03-04T21:00:03.665Z,6.49
2018-03-04T21:02:31.078Z,6.37
2018-03-04T21:04:58.666Z,6.61
2018-03-04T21:07:26.082Z,6.57
2018-03-04T21:09:53.473Z,6.54
2018-03-04T21:12:20.870Z,6.64
2018-03-04T21:14:48.255Z,6.61
2018-03-04T21:17:15.724Z,6.60
2018-03-04T21:19:43.183Z,6.76
2018-03-04T21:22:10.595Z,6.76
2018-03-04T21:24:38.026Z,6.44
2018-03-04T21:27:05.425Z,6.45
2018-03-04T21:29:32.808Z,6.41
2018-03-04T21:32:00.230Z,6.57
2018-03-04T21:34:27.618Z,6.51
2018-03-04T21:36:54.997Z,6.41
2018-03-04T21:39:23.054Z,6.38
2018-03-04T21:41:50.455Z,6.46
2018-03-04T21:44:17.830Z,6.69
2018-03-04T21:46:45.366Z,6.72
2018-03-04T21:49:12.812Z,6.62
2018-03-04T21:51:40.247Z,6.38
2018-03-04T21:54:07.626Z,6.19
2018-03-04T21:56:35.019Z,6.31
2018-03-04T21:59:02.415Z,6.48
2018-03-04T22:01:29.841Z,6.26
2018-03-04T22:03:57.221Z,6.04
2018-03-04T22:06:24.606Z,6.06
2018-03-04T22:08:51.994Z,6.20
2018-03-04T22:11:19.428Z,6.35
2018-03-04T22:13:46.809Z,6.46
2018-03-04T22:16:14.193Z,6.55
2018-03-04T22:18:41.583Z,6.53
2018-03-04T22:21:08.985Z,6.64
2018-03-04T22:23:36.451Z,6.70
2018-03-04T22:26:03.849Z,6.68
2018-03-04T22:28:31.230Z,6.48
2018-03-04T22:30:58.616Z,6.54
2018-03-04T22:33:26.126Z,6.54
2018-03-04T22:35:53.527Z,6.33
2018-03-04T22:38:20.906Z,6.42
2018-03-04T22:40:48.297Z,6.15
2018-03-04T22:43:15.685Z,6.31
2018-03-04T22:45:43.075Z,6.68
2018-03-04T22:48:10.466Z,6.71
2018-03-04T22:50:37.855Z,6.71
2018-03-04T22:53:05.472Z,6.48
2018-03-04T22:55:32.881Z,6.42
2018-03-04T22:58:00.265Z,6.52
2018-03-04T23:00:27.668Z,6.56
2018-03-04T23:02:55.129Z,6.52
2018-03-04T23:05:22.510Z,6.65
2018-03-04T23:07:49.896Z,6.73
2018-03-04T23:10:17.465Z,6.65
2018-03-04T23:12:44.897Z,6.53
2018-03-04T23:15:12.333Z,6.65
2018-03-04T23:17:39.770Z,6.84
2018-03-04T23:20:07.161Z,6.67
2018-03-04T23:22:34.598Z,6.83
2018-03-04T23:25:02.814Z,6.25
2018-03-04T23:27:30.226Z,6.26
2018-03-04T23:29:57.625Z,6.55
2018-03-04T23:32:25.011Z,6.72
2018-03-04T23:34:55.383Z,6.62
2018-03-04T23:37:22.769Z,6.65
2018-03-04T23:39:50.157Z,6.44
2018-03-04T23:42:17.578Z,6.61
2018-03-04T23:44:44.962Z,6.72
2018-03-04T23:47:12.353Z,6.25
2018-03-04T23:49:39.769Z,6.56
2018-03-04T23:52:07.158Z,6.40
2018-03-04T23:54:34.569Z,6.56
2018-03-04T23:57:01.997Z,6.56
2018-03-04T23:59:29.462Z,6.54
